sensor_id;sensor_type;location;lat;lon;timestamp;pressure;altitude;pressure_sealevel;temperature;humidity
62524;BME280;53689;56.878;60.672;2023-03-22T00:02:13;97539.88;;;24.61;20.98
62524;BME280;53689;56.878;60.672;2023-03-22T00:04:40;97539.66;;;24.63;21.60
62524;BME280;53689;56.878;60.672;2023-03-22T00:07:08;97540.22;;;24.65;21.04
62524;BME280;53689;56.878;60.672;2023-03-22T00:09:35;97546.13;;;24.62;21.37
62524;BME280;53689;56.878;60.672;2023-03-22T00:12:02;97546.34;;;24.60;21.99
62524;BME280;53689;56.878;60.672;2023-03-22T00:14:31;97536.38;;;24.61;21.24
62524;BME280;53689;56.878;60.672;2023-03-22T00:16:58;97541.56;;;24.62;20.71
62524;BME280;53689;56.878;60.672;2023-03-22T00:19:25;97537.16;;;24.61;21.03
62524;BME280;53689;56.878;60.672;2023-03-22T00:21:53;97537.16;;;24.61;21.25
62524;BME280;53689;56.878;60.672;2023-03-22T00:24:20;97532.81;;;24.60;21.12
62524;BME280;53689;56.878;60.672;2023-03-22T00:26:47;97526.59;;;24.60;21.93
62524;BME280;53689;56.878;60.672;2023-03-22T00:29:14;97532.00;;;24.60;21.12
62524;BME280;53689;56.878;60.672;2023-03-22T00:31:43;97522.00;;;24.60;22.00
62524;BME280;53689;56.878;60.672;2023-03-22T00:34:11;97528.72;;;24.58;21.62
62524;BME280;53689;56.878;60.672;2023-03-22T00:36:38;97529.31;;;24.60;21.11
62524;BME280;53689;56.878;60.672;2023-03-22T00:39:05;97518.72;;;24.58;21.78
62524;BME280;53689;56.878;60.672;2023-03-22T00:41:32;97522.25;;;24.59;21.64
62524;BME280;53689;56.878;60.672;2023-03-22T00:43:59;97516.59;;;24.60;21.86
62524;BME280;53689;56.878;60.672;2023-03-22T00:46:29;97518.22;;;24.61;21.01
62524;BME280;53689;56.878;60.672;2023-03-22T00:48:58;97512.38;;;24.64;21.65
62524;BME280;53689;56.878;60.672;2023-03-22T00:51:25;97515.53;;;24.61;21.35
62524;BME280;53689;56.878;60.672;2023-03-22T00:53:52;97510.38;;;24.60;22.36
62524;BME280;53689;56.878;60.672;2023-03-22T00:56:19;97507.41;;;24.61;21.40
62524;BME280;53689;56.878;60.672;2023-03-22T00:58:54;97501.66;;;24.58;21.16
62524;BME280;53689;56.878;60.672;2023-03-22T01:01:22;97498.13;;;24.57;21.70
62524;BME280;53689;56.878;60.672;2023-03-22T01:03:49;97495.78;;;24.61;21.81
62524;BME280;53689;56.878;60.672;2023-03-22T01:06:18;97500.59;;;24.59;21.98
62524;BME280;53689;56.878;60.672;2023-03-22T01:08:45;97491.41;;;24.60;22.17
62524;BME280;53689;56.878;60.672;2023-03-22T01:11:15;97489.19;;;24.57;21.57
62524;BME280;53689;56.878;60.672;2023-03-22T01:13:43;97482.72;;;24.58;21.68
62524;BME280;53689;56.878;60.672;2023-03-22T01:16:10;97482.47;;;24.59;21.44
62524;BME280;53689;56.878;60.672;2023-03-22T01:18:37;97481.09;;;24.57;22.16
62524;BME280;53689;56.878;60.672;2023-03-22T01:21:06;97480.00;;;24.58;21.95
62524;BME280;53689;56.878;60.672;2023-03-22T01:23:35;97475.41;;;24.58;21.70
62524;BME280;53689;56.878;60.672;2023-03-22T01:26:02;97470.25;;;24.57;21.60
62524;BME280;53689;56.878;60.672;2023-03-22T01:28:30;97461.31;;;24.56;21.86
62524;BME280;53689;56.878;60.672;2023-03-22T01:30:59;97459.44;;;24.57;21.93
62524;BME280;53689;56.878;60.672;2023-03-22T01:33:26;97470.84;;;24.59;21.85
62524;BME280;53689;56.878;60.672;2023-03-22T01:35:54;97461.06;;;24.58;21.50
62524;BME280;53689;56.878;60.672;2023-03-22T01:38:22;97457.53;;;24.57;21.67
62524;BME280;53689;56.878;60.672;2023-03-22T01:40:57;97462.94;;;24.57;21.01
62524;BME280;53689;56.878;60.672;2023-03-22T01:43:25;97451.88;;;24.59;21.39
62524;BME280;53689;56.878;60.672;2023-03-22T01:45:53;97454.59;;;24.59;21.97
62524;BME280;53689;56.878;60.672;2023-03-22T01:48:26;97451.31;;;24.57;21.75
62524;BME280;53689;56.878;60.672;2023-03-22T01:50:57;97445.06;;;24.56;21.46
62524;BME280;53689;56.878;60.672;2023-03-22T01:53:26;97447.28;;;24.59;21.63
62524;BME280;53689;56.878;60.672;2023-03-22T01:55:54;97441.06;;;24.59;21.89
62524;BME280;53689;56.878;60.672;2023-03-22T01:58:30;97438.94;;;24.61;21.13
62524;BME280;53689;56.878;60.672;2023-03-22T02:01:00;97436.47;;;24.59;22.06
62524;BME280;53689;56.878;60.672;2023-03-22T02:03:44;97432.38;;;24.57;21.95
62524;BME280;53689;56.878;60.672;2023-03-22T02:06:13;97433.19;;;24.57;21.24
62524;BME280;53689;56.878;60.672;2023-03-22T02:08:41;97428.00;;;24.56;22.06
62524;BME280;53689;56.878;60.672;2023-03-22T02:11:15;97431.53;;;24.56;21.95
62524;BME280;53689;56.878;60.672;2023-03-22T02:16:47;97416.72;;;24.59;21.38
62524;BME280;53689;56.878;60.672;2023-03-22T02:22:19;97415.31;;;24.56;22.06
62524;BME280;53689;56.878;60.672;2023-03-22T02:27:38;97408.03;;;24.57;22.10
62524;BME280;53689;56.878;60.672;2023-03-22T02:30:18;97420.00;;;24.61;21.07
62524;BME280;53689;56.878;60.672;2023-03-22T02:35:47;97410.72;;;24.57;21.02
62524;BME280;53689;56.878;60.672;2023-03-22T02:41:02;97408.59;;;24.59;21.18
62524;BME280;53689;56.878;60.672;2023-03-22T02:43:33;97400.47;;;24.59;21.24
62524;BME280;53689;56.878;60.672;2023-03-22T02:46:04;97395.53;;;24.56;22.00
62524;BME280;53689;56.878;60.672;2023-03-22T02:48:34;97396.84;;;24.53;21.84
62524;BME280;53689;56.878;60.672;2023-03-22T02:51:06;97388.72;;;24.53;21.97
62524;BME280;53689;56.878;60.672;2023-03-22T02:53:37;97390.59;;;24.52;21.86
62524;BME280;53689;56.878;60.672;2023-03-22T02:56:09;97387.88;;;24.52;21.56
62524;BME280;53689;56.878;60.672;2023-03-22T02:58:37;97385.19;;;24.52;21.72
62524;BME280;53689;56.878;60.672;2023-03-22T03:01:07;97384.75;;;24.32;22.58
62524;BME280;53689;56.878;60.672;2023-03-22T03:03:37;97374.16;;;24.42;21.93
62524;BME280;53689;56.878;60.672;2023-03-22T03:06:06;97382.03;;;24.44;22.62
62524;BME280;53689;56.878;60.672;2023-03-22T03:08:36;97366.59;;;24.44;22.32
62524;BME280;53689;56.878;60.672;2023-03-22T03:11:05;97369.31;;;24.44;22.68
62524;BME280;53689;56.878;60.672;2023-03-22T03:13:34;97370.72;;;24.47;22.85
62524;BME280;53689;56.878;60.672;2023-03-22T03:16:02;97369.19;;;24.51;21.97
62524;BME280;53689;56.878;60.672;2023-03-22T03:18:34;97371.44;;;24.54;21.32
62524;BME280;53689;56.878;60.672;2023-03-22T03:21:06;97365.19;;;24.53;21.39
62524;BME280;53689;56.878;60.672;2023-03-22T03:23:43;97353.56;;;24.53;21.64
62524;BME280;53689;56.878;60.672;2023-03-22T03:26:12;97353.56;;;24.53;21.50
62524;BME280;53689;56.878;60.672;2023-03-22T03:28:46;97348.13;;;24.53;21.77
62524;BME280;53689;56.878;60.672;2023-03-22T03:31:25;97346.25;;;24.53;22.01
62524;BME280;53689;56.878;60.672;2023-03-22T03:33:56;97350.59;;;24.55;21.54
62524;BME280;53689;56.878;60.672;2023-03-22T03:36:25;97341.19;;;24.57;21.74
62524;BME280;53689;56.878;60.672;2023-03-22T03:38:54;97336.59;;;24.58;21.66
62524;BME280;53689;56.878;60.672;2023-03-22T03:41:24;97340.94;;;24.59;21.24
62524;BME280;53689;56.878;60.672;2023-03-22T03:43:54;97341.59;;;24.66;20.62
62524;BME280;53689;56.878;60.672;2023-03-22T03:46:23;97329.03;;;24.72;21.08
62524;BME280;53689;56.878;60.672;2023-03-22T03:48:53;97333.47;;;24.66;20.93
62524;BME280;53689;56.878;60.672;2023-03-22T03:51:22;97334.56;;;24.65;21.52
62524;BME280;53689;56.878;60.672;2023-03-22T03:53:49;97328.91;;;24.66;21.27
62524;BME280;53689;56.878;60.672;2023-03-22T03:56:17;97324.22;;;24.62;22.16
62524;BME280;53689;56.878;60.672;2023-03-22T03:58:46;97316.09;;;24.62;21.12
62524;BME280;53689;56.878;60.672;2023-03-22T04:01:16;97319.94;;;24.66;21.12
62524;BME280;53689;56.878;60.672;2023-03-22T04:04:07;97307.97;;;24.62;20.86
62524;BME280;53689;56.878;60.672;2023-03-22T04:06:44;97309.13;;;24.66;21.55
62524;BME280;53689;56.878;60.672;2023-03-22T04:09:22;97305.84;;;24.64;21.13
62524;BME280;53689;56.878;60.672;2023-03-22T04:11:54;97302.91;;;24.65;21.25
62524;BME280;53689;56.878;60.672;2023-03-22T04:14:21;97299.38;;;24.65;21.75
62524;BME280;53689;56.878;60.672;2023-03-22T04:16:52;97301.28;;;24.64;20.99
62524;BME280;53689;56.878;60.672;2023-03-22T04:19:21;97309.97;;;24.66;21.35
62524;BME280;53689;56.878;60.672;2023-03-22T04:21:49;97301.47;;;24.75;20.99
62524;BME280;53689;56.878;60.672;2023-03-22T04:24:16;97308.16;;;24.72;21.32
62524;BME280;53689;56.878;60.672;2023-03-22T04:26:45;97303.69;;;24.78;20.47
62524;BME280;53689;56.878;60.672;2023-03-22T04:29:32;97303.69;;;24.78;20.86
62524;BME280;53689;56.878;60.672;2023-03-22T04:32:22;97299.19;;;24.84;20.75
62524;BME280;53689;56.878;60.672;2023-03-22T04:34:51;97298.41;;;24.83;19.88
62524;BME280;53689;56.878;60.672;2023-03-22T04:37:20;97302.75;;;24.72;20.97
62524;BME280;53689;56.878;60.672;2023-03-22T04:40:07;97294.56;;;24.67;21.66
62524;BME280;53689;56.878;60.672;2023-03-22T04:42:44;97285.25;;;24.63;21.62
62524;BME280;53689;56.878;60.672;2023-03-22T04:45:17;97287.28;;;24.56;21.89
62524;BME280;53689;56.878;60.672;2023-03-22T04:47:53;97281.56;;;24.52;22.46
62524;BME280;53689;56.878;60.672;2023-03-22T04:50:21;97281.47;;;24.35;21.62
62524;BME280;53689;56.878;60.672;2023-03-22T04:52:54;97276.63;;;24.49;21.53
62524;BME280;53689;56.878;60.672;2023-03-22T04:55:22;97278.16;;;24.45;22.65
62524;BME280;53689;56.878;60.672;2023-03-22T04:57:49;97270.84;;;24.45;21.83
62524;BME280;53689;56.878;60.672;2023-03-22T05:00:16;97276.81;;;24.59;20.45
62524;BME280;53689;56.878;60.672;2023-03-22T05:02:44;97273.03;;;24.89;20.53
62524;BME280;53689;56.878;60.672;2023-03-22T05:05:23;97270.84;;;24.86;19.50
62524;BME280;53689;56.878;60.672;2023-03-22T05:07:51;97267.34;;;24.74;20.60
62524;BME280;53689;56.878;60.672;2023-03-22T05:10:18;97262.56;;;24.64;20.88
62524;BME280;53689;56.878;60.672;2023-03-22T05:12:46;97251.72;;;24.64;21.34
62524;BME280;53689;56.878;60.672;2023-03-22T05:15:25;97256.47;;;24.57;21.70
62524;BME280;53689;56.878;60.672;2023-03-22T05:17:52;97248.75;;;24.48;21.56
62524;BME280;53689;56.878;60.672;2023-03-22T05:20:20;97249.72;;;24.42;22.25
62524;BME280;53689;56.878;60.672;2023-03-22T05:23:01;97241.28;;;24.56;21.79
62524;BME280;53689;56.878;60.672;2023-03-22T05:25:31;97243.56;;;24.76;20.65
62524;BME280;53689;56.878;60.672;2023-03-22T05:27:59;97239.84;;;24.65;20.98
62524;BME280;53689;56.878;60.672;2023-03-22T05:30:40;97230.63;;;24.49;21.26
62524;BME280;53689;56.878;60.672;2023-03-22T05:33:24;97224.69;;;24.35;22.32
62524;BME280;53689;56.878;60.672;2023-03-22T05:35:55;97223.78;;;24.46;21.46
62524;BME280;53689;56.878;60.672;2023-03-22T05:38:27;97217.00;;;24.44;21.30
62524;BME280;53689;56.878;60.672;2023-03-22T05:40:57;97212.59;;;24.84;20.12
62524;BME280;53689;56.878;60.672;2023-03-22T05:43:25;97199.25;;;24.65;21.78
62524;BME280;53689;56.878;60.672;2023-03-22T05:45:52;97201.94;;;24.48;21.53
62524;BME280;53689;56.878;60.672;2023-03-22T05:48:32;97200.19;;;24.42;22.12
62524;BME280;53689;56.878;60.672;2023-03-22T05:50:59;97188.44;;;24.36;21.72
62524;BME280;53689;56.878;60.672;2023-03-22T05:53:30;97179.44;;;24.76;20.41
62524;BME280;53689;56.878;60.672;2023-03-22T05:56:05;97190.13;;;25.00;19.62
62524;BME280;53689;56.878;60.672;2023-03-22T05:58:33;97186.41;;;24.89;20.28
62524;BME280;53689;56.878;60.672;2023-03-22T06:01:03;97182.66;;;24.61;20.67
62524;BME280;53689;56.878;60.672;2023-03-22T06:03:46;97178.09;;;24.62;20.67
62524;BME280;53689;56.878;60.672;2023-03-22T06:06:31;97166.44;;;24.61;21.62
62524;BME280;53689;56.878;60.672;2023-03-22T06:09:08;97173.09;;;24.71;20.67
62524;BME280;53689;56.878;60.672;2023-03-22T06:11:47;97168.53;;;24.88;20.54
62524;BME280;53689;56.878;60.672;2023-03-22T06:14:16;97170.66;;;24.86;20.28
62524;BME280;53689;56.878;60.672;2023-03-22T06:16:54;97164.75;;;24.89;19.78
62524;BME280;53689;56.878;60.672;2023-03-22T06:19:23;97160.59;;;24.82;20.69
62524;BME280;53689;56.878;60.672;2023-03-22T06:21:52;97152.56;;;24.87;20.55
62524;BME280;53689;56.878;60.672;2023-03-22T06:24:24;97144.25;;;24.93;19.79
62524;BME280;53689;56.878;60.672;2023-03-22T06:26:52;97134.00;;;24.96;20.33
62524;BME280;53689;56.878;60.672;2023-03-22T06:29:20;97137.94;;;24.88;20.35
62524;BME280;53689;56.878;60.672;2023-03-22T06:31:50;97130.00;;;24.81;20.18
62524;BME280;53689;56.878;60.672;2023-03-22T06:34:18;97129.88;;;24.76;20.51
62524;BME280;53689;56.878;60.672;2023-03-22T06:36:46;97134.97;;;24.89;19.93
62524;BME280;53689;56.878;60.672;2023-03-22T06:39:29;97139.41;;;24.96;20.32
62524;BME280;53689;56.878;60.672;2023-03-22T06:41:57;97129.06;;;25.10;19.55
62524;BME280;53689;56.878;60.672;2023-03-22T06:44:24;97129.31;;;25.08;20.14
62524;BME280;53689;56.878;60.672;2023-03-22T06:46:52;97119.25;;;24.86;20.74
62524;BME280;53689;56.878;60.672;2023-03-22T06:49:38;97110.56;;;24.84;20.88
62524;BME280;53689;56.878;60.672;2023-03-22T06:52:07;97112.75;;;24.87;20.51
62524;BME280;53689;56.878;60.672;2023-03-22T06:54:36;97099.88;;;24.94;20.27
62524;BME280;53689;56.878;60.672;2023-03-22T06:57:04;97106.03;;;24.90;20.24
62524;BME280;53689;56.878;60.672;2023-03-22T06:59:32;97091.28;;;24.80;20.32
62524;BME280;53689;56.878;60.672;2023-03-22T07:02:01;97096.69;;;24.80;21.13
62524;BME280;53689;56.878;60.672;2023-03-22T07:04:29;97086.94;;;24.79;20.62
62524;BME280;53689;56.878;60.672;2023-03-22T07:06:57;97076.66;;;24.82;20.45
62524;BME280;53689;56.878;60.672;2023-03-22T07:09:26;97092.97;;;25.04;20.25
62524;BME280;53689;56.878;60.672;2023-03-22T07:11:57;97075.53;;;25.17;20.40
62524;BME280;53689;56.878;60.672;2023-03-22T07:14:25;97092.72;;;25.05;20.07
62524;BME280;53689;56.878;60.672;2023-03-22T07:16:59;97084.75;;;24.99;19.82
62524;BME280;53689;56.878;60.672;2023-03-22T07:19:28;97093.94;;;24.98;19.90
62524;BME280;53689;56.878;60.672;2023-03-22T07:21:57;97090.03;;;25.05;19.92
62524;BME280;53689;56.878;60.672;2023-03-22T07:24:25;97090.94;;;25.33;19.92
62524;BME280;53689;56.878;60.672;2023-03-22T07:26:53;97082.28;;;25.37;19.51
62524;BME280;53689;56.878;60.672;2023-03-22T07:29:27;97091.84;;;25.22;19.92
62524;BME280;53689;56.878;60.672;2023-03-22T07:31:56;97088.59;;;25.42;19.92
62524;BME280;53689;56.878;60.672;2023-03-22T07:34:28;97081.06;;;25.67;19.63
62524;BME280;53689;56.878;60.672;2023-03-22T07:37:11;97078.50;;;25.38;20.16
62524;BME280;53689;56.878;60.672;2023-03-22T07:39:40;97082.03;;;25.16;20.28
62524;BME280;53689;56.878;60.672;2023-03-22T07:42:07;97085.72;;;25.10;20.08
62524;BME280;53689;56.878;60.672;2023-03-22T07:44:41;97072.69;;;25.06;19.64
62524;BME280;53689;56.878;60.672;2023-03-22T07:47:31;97077.59;;;25.10;19.51
62524;BME280;53689;56.878;60.672;2023-03-22T07:50:30;97070.38;;;25.15;19.50
62524;BME280;53689;56.878;60.672;2023-03-22T07:53:01;97078.88;;;25.02;20.24
62524;BME280;53689;56.878;60.672;2023-03-22T07:55:29;97063.38;;;24.97;20.86
62524;BME280;53689;56.878;60.672;2023-03-22T07:57:57;97061.66;;;24.91;21.17
62524;BME280;53689;56.878;60.672;2023-03-22T08:00:26;97052.44;;;24.92;20.28
62524;BME280;53689;56.878;60.672;2023-03-22T08:03:14;97060.97;;;25.01;20.02
62524;BME280;53689;56.878;60.672;2023-03-22T08:06:07;97054.34;;;24.74;20.94
62524;BME280;53689;56.878;60.672;2023-03-22T08:08:37;97047.69;;;24.14;22.89
62524;BME280;53689;56.878;60.672;2023-03-22T08:11:05;97053.03;;;23.96;22.87
62524;BME280;53689;56.878;60.672;2023-03-22T08:13:33;97047.44;;;24.15;22.79
62524;BME280;53689;56.878;60.672;2023-03-22T08:16:03;97041.09;;;23.92;22.18
62524;BME280;53689;56.878;60.672;2023-03-22T08:18:31;97038.66;;;24.08;22.95
62524;BME280;53689;56.878;60.672;2023-03-22T08:20:59;97032.31;;;24.02;22.08
62524;BME280;53689;56.878;60.672;2023-03-22T08:23:31;97024.50;;;24.35;21.86
62524;BME280;53689;56.878;60.672;2023-03-22T08:26:27;97024.78;;;24.33;21.61
62524;BME280;53689;56.878;60.672;2023-03-22T08:29:02;97018.31;;;24.34;21.61
62524;BME280;53689;56.878;60.672;2023-03-22T08:31:34;97023.59;;;24.46;20.76
62524;BME280;53689;56.878;60.672;2023-03-22T08:34:02;97020.16;;;24.51;21.70
62524;BME280;53689;56.878;60.672;2023-03-22T08:36:29;97009.59;;;24.49;21.25
62524;BME280;53689;56.878;60.672;2023-03-22T08:39:01;97022.59;;;24.70;21.16
62524;BME280;53689;56.878;60.672;2023-03-22T08:41:55;97005.09;;;24.38;22.49
62524;BME280;53689;56.878;60.672;2023-03-22T08:44:25;97000.19;;;24.52;21.58
62524;BME280;53689;56.878;60.672;2023-03-22T08:46:54;97003.31;;;24.66;22.17
62524;BME280;53689;56.878;60.672;2023-03-22T08:49:22;97008.28;;;24.35;22.49
62524;BME280;53689;56.878;60.672;2023-03-22T08:51:57;97009.09;;;24.52;20.84
62524;BME280;53689;56.878;60.672;2023-03-22T08:54:44;97010.66;;;24.65;21.98
62524;BME280;53689;56.878;60.672;2023-03-22T08:57:47;97023.78;;;24.39;23.53
62524;BME280;53689;56.878;60.672;2023-03-22T09:00:24;97012.00;;;24.00;23.73
62524;BME280;53689;56.878;60.672;2023-03-22T09:03:13;97002.41;;;23.92;23.22
62524;BME280;53689;56.878;60.672;2023-03-22T09:05:41;97019.28;;;23.82;23.17
62524;BME280;53689;56.878;60.672;2023-03-22T09:08:10;97006.25;;;23.50;23.97
62524;BME280;53689;56.878;60.672;2023-03-22T09:10:49;97004.28;;;23.45;23.25
62524;BME280;53689;56.878;60.672;2023-03-22T09:13:20;97000.06;;;23.49;23.28
62524;BME280;53689;56.878;60.672;2023-03-22T09:15:54;97002.56;;;24.14;23.83
62524;BME280;53689;56.878;60.672;2023-03-22T09:18:26;97007.31;;;24.24;25.16
62524;BME280;53689;56.878;60.672;2023-03-22T09:20:58;97000.59;;;24.44;25.19
62524;BME280;53689;56.878;60.672;2023-03-22T09:23:33;96995.50;;;24.47;22.77
62524;BME280;53689;56.878;60.672;2023-03-22T09:26:02;96998.94;;;24.99;20.29
62524;BME280;53689;56.878;60.672;2023-03-22T09:28:30;96996.03;;;24.84;20.30
62524;BME280;53689;56.878;60.672;2023-03-22T09:31:01;97000.03;;;24.98;20.07
62524;BME280;53689;56.878;60.672;2023-03-22T09:33:31;97005.94;;;24.95;20.70
62524;BME280;53689;56.878;60.672;2023-03-22T09:35:58;96999.06;;;24.87;21.06
62524;BME280;53689;56.878;60.672;2023-03-22T09:38:27;96999.00;;;24.82;21.42
62524;BME280;53689;56.878;60.672;2023-03-22T09:40:55;97001.22;;;24.68;21.96
62524;BME280;53689;56.878;60.672;2023-03-22T09:43:24;97011.81;;;24.52;22.05
62524;BME280;53689;56.878;60.672;2023-03-22T09:45:53;97000.16;;;24.35;23.58
62524;BME280;53689;56.878;60.672;2023-03-22T09:48:21;96991.41;;;24.28;22.97
62524;BME280;53689;56.878;60.672;2023-03-22T09:50:52;96991.25;;;24.17;22.79
62524;BME280;53689;56.878;60.672;2023-03-22T09:53:21;96985.63;;;23.90;23.90
62524;BME280;53689;56.878;60.672;2023-03-22T09:55:50;96990.44;;;24.17;23.42
62524;BME280;53689;56.878;60.672;2023-03-22T09:58:23;96993.13;;;24.34;22.14
62524;BME280;53689;56.878;60.672;2023-03-22T10:00:55;96991.31;;;24.39;22.47
62524;BME280;53689;56.878;60.672;2023-03-22T10:03:27;96976.22;;;24.61;21.99
62524;BME280;53689;56.878;60.672;2023-03-22T10:06:00;96978.81;;;24.73;21.29
62524;BME280;53689;56.878;60.672;2023-03-22T10:08:31;96969.72;;;24.79;21.12
62524;BME280;53689;56.878;60.672;2023-03-22T10:11:02;96977.34;;;24.65;21.40
62524;BME280;53689;56.878;60.672;2023-03-22T10:13:35;96973.31;;;25.07;20.09
62524;BME280;53689;56.878;60.672;2023-03-22T10:16:09;96978.66;;;24.79;21.39
62524;BME280;53689;56.878;60.672;2023-03-22T10:18:39;96965.69;;;24.82;21.19
62524;BME280;53689;56.878;60.672;2023-03-22T10:21:10;96960.53;;;24.80;21.18
62524;BME280;53689;56.878;60.672;2023-03-22T10:23:40;96961.34;;;24.80;21.17
62524;BME280;53689;56.878;60.672;2023-03-22T10:26:12;96961.09;;;24.82;20.99
62524;BME280;53689;56.878;60.672;2023-03-22T10:28:46;96959.78;;;24.85;20.53
62524;BME280;53689;56.878;60.672;2023-03-22T10:31:16;96973.94;;;25.14;20.68
62524;BME280;53689;56.878;60.672;2023-03-22T10:33:45;96958.41;;;25.04;20.83
62524;BME280;53689;56.878;60.672;2023-03-22T10:36:15;96961.03;;;24.99;21.21
62524;BME280;53689;56.878;60.672;2023-03-22T10:38:44;96960.16;;;24.93;21.42
62524;BME280;53689;56.878;60.672;2023-03-22T10:41:13;96958.22;;;24.89;20.84
62524;BME280;53689;56.878;60.672;2023-03-22T10:43:42;96953.69;;;24.94;20.46
62524;BME280;53689;56.878;60.672;2023-03-22T10:46:11;96949.34;;;25.16;20.29
62524;BME280;53689;56.878;60.672;2023-03-22T10:48:42;96955.19;;;25.07;20.21
62524;BME280;53689;56.878;60.672;2023-03-22T10:51:10;96948.00;;;25.18;20.37
62524;BME280;53689;56.878;60.672;2023-03-22T10:53:44;96951.34;;;25.03;20.37
62524;BME280;53689;56.878;60.672;2023-03-22T10:56:12;96946.44;;;25.00;20.60
62524;BME280;53689;56.878;60.672;2023-03-22T10:58:39;96947.06;;;24.85;22.06
62524;BME280;53689;56.878;60.672;2023-03-22T11:01:07;96947.50;;;25.21;20.65
62524;BME280;53689;56.878;60.672;2023-03-22T11:03:36;96937.09;;;25.13;20.66
62524;BME280;53689;56.878;60.672;2023-03-22T11:06:05;96940.81;;;25.07;20.42
62524;BME280;53689;56.878;60.672;2023-03-22T11:08:40;96940.56;;;25.08;20.43
62524;BME280;53689;56.878;60.672;2023-03-22T11:11:16;96939.50;;;25.10;20.42
62524;BME280;53689;56.878;60.672;2023-03-22T11:13:48;96950.41;;;25.15;20.80
62524;BME280;53689;56.878;60.672;2023-03-22T11:16:16;96929.75;;;25.36;20.89
62524;BME280;53689;56.878;60.672;2023-03-22T11:18:44;96921.84;;;25.29;20.94
62524;BME280;53689;56.878;60.672;2023-03-22T11:21:11;96923.16;;;25.27;20.16
62524;BME280;53689;56.878;60.672;2023-03-22T11:23:43;96917.28;;;25.35;20.08
62524;BME280;53689;56.878;60.672;2023-03-22T11:26:13;96915.34;;;25.30;20.57
62524;BME280;53689;56.878;60.672;2023-03-22T11:28:44;96913.72;;;25.29;20.64
62524;BME280;53689;56.878;60.672;2023-03-22T11:31:12;96907.63;;;25.17;21.47
62524;BME280;53689;56.878;60.672;2023-03-22T11:33:44;96904.78;;;25.29;20.89
62524;BME280;53689;56.878;60.672;2023-03-22T11:36:20;96913.88;;;25.45;20.36
62524;BME280;53689;56.878;60.672;2023-03-22T11:38:47;96906.53;;;25.40;20.75
62524;BME280;53689;56.878;60.672;2023-03-22T11:41:22;96902.44;;;25.38;20.79
62524;BME280;53689;56.878;60.672;2023-03-22T11:43:53;96912.44;;;25.37;20.16
62524;BME280;53689;56.878;60.672;2023-03-22T11:46:21;96900.28;;;25.40;20.55
62524;BME280;53689;56.878;60.672;2023-03-22T11:48:50;96892.50;;;25.48;20.42
62524;BME280;53689;56.878;60.672;2023-03-22T11:51:24;96887.44;;;25.52;20.53
62524;BME280;53689;56.878;60.672;2023-03-22T11:53:54;96885.19;;;25.49;20.64
62524;BME280;53689;56.878;60.672;2023-03-22T11:56:25;96885.41;;;25.42;20.73
62524;BME280;53689;56.878;60.672;2023-03-22T11:58:56;96888.00;;;25.54;20.28
62524;BME280;53689;56.878;60.672;2023-03-22T12:01:28;96881.44;;;25.50;20.58
62524;BME280;53689;56.878;60.672;2023-03-22T12:03:57;96867.53;;;25.46;20.35
62524;BME280;53689;56.878;60.672;2023-03-22T12:06:25;96866.75;;;25.46;20.04
62524;BME280;53689;56.878;60.672;2023-03-22T12:08:54;96872.16;;;25.46;20.65
62524;BME280;53689;56.878;60.672;2023-03-22T12:11:26;96867.28;;;25.43;20.54
62524;BME280;53689;56.878;60.672;2023-03-22T12:13:58;96868.19;;;25.26;21.16
62524;BME280;53689;56.878;60.672;2023-03-22T12:16:27;96858.84;;;24.89;22.40
62524;BME280;53689;56.878;60.672;2023-03-22T12:18:58;96856.88;;;24.79;22.94
62524;BME280;53689;56.878;60.672;2023-03-22T12:21:28;96859.69;;;24.90;21.95
62524;BME280;53689;56.878;60.672;2023-03-22T12:23:56;96849.84;;;25.06;21.02
62524;BME280;53689;56.878;60.672;2023-03-22T12:26:25;96854.47;;;24.83;22.20
62524;BME280;53689;56.878;60.672;2023-03-22T12:28:54;96862.06;;;25.08;21.82
62524;BME280;53689;56.878;60.672;2023-03-22T12:31:24;96858.88;;;25.17;20.74
62524;BME280;53689;56.878;60.672;2023-03-22T12:33:54;96862.88;;;25.09;21.95
62524;BME280;53689;56.878;60.672;2023-03-22T12:36:25;96856.28;;;25.00;22.28
62524;BME280;53689;56.878;60.672;2023-03-22T12:38:56;96848.28;;;25.10;20.94
62524;BME280;53689;56.878;60.672;2023-03-22T12:41:25;96857.75;;;25.13;21.03
62524;BME280;53689;56.878;60.672;2023-03-22T12:43:53;96855.81;;;25.08;20.89
62524;BME280;53689;56.878;60.672;2023-03-22T12:46:22;96842.03;;;25.10;20.31
62524;BME280;53689;56.878;60.672;2023-03-22T12:48:52;96850.38;;;25.08;20.77
62524;BME280;53689;56.878;60.672;2023-03-22T12:51:21;96859.44;;;24.69;22.99
62524;BME280;53689;56.878;60.672;2023-03-22T12:53:49;96853.44;;;24.67;22.10
62524;BME280;53689;56.878;60.672;2023-03-22T12:56:19;96852.66;;;25.16;20.96
62524;BME280;53689;56.878;60.672;2023-03-22T12:58:48;96850.69;;;25.12;21.49
62524;BME280;53689;56.878;60.672;2023-03-22T13:01:20;96858.38;;;25.20;21.29
62524;BME280;53689;56.878;60.672;2023-03-22T13:03:48;96860.63;;;25.01;21.93
62524;BME280;53689;56.878;60.672;2023-03-22T13:09:09;96852.97;;;24.75;22.57
62524;BME280;53689;56.878;60.672;2023-03-22T13:11:37;96858.50;;;24.80;20.98
62524;BME280;53689;56.878;60.672;2023-03-22T13:14:04;96855.66;;;24.92;21.35
62524;BME280;53689;56.878;60.672;2023-03-22T13:16:43;96855.69;;;24.98;21.23
62524;BME280;53689;56.878;60.672;2023-03-22T13:19:24;96854.97;;;24.80;22.83
62524;BME280;53689;56.878;60.672;2023-03-22T13:24:37;96870.41;;;24.79;22.54
62524;BME280;53689;56.878;60.672;2023-03-22T13:27:32;96878.59;;;24.67;22.18
62524;BME280;53689;56.878;60.672;2023-03-22T13:30:00;96871.59;;;24.89;21.99
62524;BME280;53689;56.878;60.672;2023-03-22T13:32:28;96866.09;;;24.84;21.80